Terminal Aerodrome Forecast
Issued by NWS Binghamton, NY

Home | Current Version | Previous Version | Text Only | Print | Product List | Glossary On
Versions: 1 2 3 4 5 6 7 8 9 10 11 12 13 14 15 16 17 18 19 20
000
FTUS41 KBGM 052340
TAFSYR
TAF
KSYR 052340Z 0600/0624 27005KT P6SM SCT025 OVC040
      TEMPO 0608/0612 OVC025
     FM061300 VRB03KT P6SM BKN035
     FM061700 13010KT P6SM OVC080=

USA.gov is the U.S. government's official web portal to all federal, state and local government web resources and services.